createdAt,value
2023-01-26T01:54:48.887Z,13
2023-01-26T02:10:23.121Z,13.6
2023-01-26T02:25:57.372Z,14.9
2023-01-26T02:41:31.614Z,17.1
2023-01-26T02:57:05.855Z,17.1
2023-01-26T03:12:40.087Z,20.6
2023-01-26T03:28:14.390Z,14.9
2023-01-26T03:43:48.645Z,13.7
2023-01-26T03:59:22.920Z,13.4
2023-01-26T04:15:00.659Z,14.1
2023-01-26T04:30:35.456Z,10.7
2023-01-26T04:46:10.025Z,16.4
2023-01-26T05:01:44.571Z,13.3
2023-01-26T05:17:18.903Z,10.3
2023-01-26T05:32:53.598Z,15.4
2023-01-26T05:48:27.861Z,12.4
2023-01-26T06:04:02.202Z,15.9
2023-01-26T06:19:36.627Z,13.3
2023-01-26T06:35:10.959Z,12.4
2023-01-26T06:50:45.245Z,9.2
2023-01-26T07:06:19.559Z,7.3
2023-01-26T07:21:53.830Z,11.9
2023-01-26T07:37:28.066Z,11.3
2023-01-26T07:53:02.405Z,8.2
2023-01-26T08:08:36.666Z,8.8
2023-01-26T08:24:10.978Z,9.4
2023-01-26T08:39:45.425Z,7.4
2023-01-26T08:55:19.707Z,7.5
2023-01-26T09:10:53.971Z,10.7
2023-01-26T09:26:28.008Z,10.6
2023-01-26T09:42:02.283Z,10.3
2023-01-26T09:57:36.527Z,8.8
2023-01-26T10:13:10.903Z,7.5
2023-01-26T10:28:45.483Z,5.8
2023-01-26T10:44:19.723Z,10.9
2023-01-26T10:59:54.023Z,11.9
2023-01-26T11:15:28.318Z,12.7
2023-01-26T11:31:02.904Z,10.3
2023-01-26T11:46:37.749Z,11.2
2023-01-26T12:02:12.069Z,9.8
2023-01-26T12:17:46.565Z,11.8
2023-01-26T12:33:20.825Z,13.1
2023-01-26T12:48:55.203Z,14.7
2023-01-26T13:04:29.469Z,12.3
2023-01-26T13:20:04.326Z,13.6
2023-01-26T13:35:38.649Z,14.3
2023-01-26T13:51:12.898Z,13.8
2023-01-26T14:06:47.147Z,14.2
2023-01-26T14:22:23.056Z,24.7
2023-01-26T14:37:57.278Z,18.1
2023-01-26T14:53:31.557Z,18.7
2023-01-26T15:09:05.828Z,15.7
2023-01-26T15:24:40.195Z,23.3
2023-01-26T15:40:15.991Z,18.3
2023-01-26T15:55:50.223Z,23
2023-01-26T16:11:24.551Z,19.3
2023-01-26T16:26:58.939Z,17
2023-01-26T16:42:33.193Z,16.9
2023-01-26T16:58:07.405Z,20.1
2023-01-26T17:13:41.636Z,21.3
2023-01-26T17:29:15.905Z,19.3
2023-01-26T17:44:50.154Z,25.2
2023-01-26T18:00:24.427Z,20.3
2023-01-26T18:15:58.708Z,27.4
2023-01-26T18:31:33.460Z,19.1
2023-01-26T18:47:07.924Z,19.5
2023-01-26T19:02:42.334Z,20.1
2023-01-26T19:18:16.635Z,17.6
2023-01-26T19:33:50.902Z,23.9
2023-01-26T19:49:25.146Z,20.2
2023-01-26T20:04:59.380Z,22.6
2023-01-26T20:20:33.647Z,20.2
2023-01-26T20:36:07.973Z,22.7
2023-01-26T20:51:42.245Z,22.3
2023-01-26T21:07:16.637Z,27
2023-01-26T21:22:50.893Z,27.1
2023-01-26T21:38:25.211Z,19.1
2023-01-26T21:53:59.477Z,18.8
2023-01-26T22:09:33.791Z,20.2
2023-01-26T22:25:08.094Z,26.8
2023-01-26T22:40:42.349Z,19.9
2023-01-26T22:56:16.592Z,17.9
2023-01-26T23:11:50.877Z,19.1
2023-01-26T23:27:25.121Z,24.2
2023-01-26T23:43:17.742Z,23.1
2023-01-26T23:58:51.989Z,19.3
